createdAt,value
2018-12-06T00:00:12.466Z,3.93
2018-12-06T00:02:40.953Z,4.63
2018-12-06T00:05:09.556Z,4.60
2018-12-06T00:07:38.166Z,4.63
2018-12-06T00:10:07.223Z,4.20
2018-12-06T00:12:35.815Z,4.50
2018-12-06T00:15:15.672Z,4.53
2018-12-06T00:17:44.156Z,4.70
2018-12-06T00:20:12.655Z,4.00
2018-12-06T00:22:41.188Z,4.67
2018-12-06T00:25:09.804Z,4.40
2018-12-06T00:27:38.260Z,4.87
2018-12-06T00:30:17.919Z,4.37
2018-12-06T00:32:46.478Z,4.27
2018-12-06T00:35:14.977Z,4.53
2018-12-06T00:37:43.454Z,4.23
2018-12-06T00:40:12.007Z,4.33
2018-12-06T00:42:40.516Z,4.40
2018-12-06T00:45:09.082Z,3.83
2018-12-06T00:47:37.566Z,4.30
2018-12-06T00:50:06.221Z,4.80
2018-12-06T00:52:35.225Z,4.40
2018-12-06T00:55:04.325Z,4.47
2018-12-06T00:57:33.444Z,4.37
2018-12-06T01:00:02.537Z,4.03
2018-12-06T01:02:31.621Z,4.47
2018-12-06T01:05:00.653Z,4.67
2018-12-06T01:07:29.660Z,4.60
2018-12-06T01:09:58.710Z,4.57
2018-12-06T01:12:27.710Z,4.20
2018-12-06T01:14:56.697Z,4.60
2018-12-06T01:17:25.684Z,4.60
2018-12-06T01:19:54.387Z,4.40
2018-12-06T01:22:23.273Z,3.93
2018-12-06T01:24:52.328Z,4.17
2018-12-06T01:27:21.412Z,4.50
2018-12-06T01:29:50.442Z,4.43
2018-12-06T01:32:19.221Z,4.63
2018-12-06T01:34:48.265Z,4.33
2018-12-06T01:37:17.150Z,4.43
2018-12-06T01:39:45.703Z,5.43
2018-12-06T01:42:19.003Z,5.60
2018-12-06T01:44:47.472Z,4.60
2018-12-06T01:47:15.974Z,3.97
2018-12-06T01:49:45.041Z,4.73
2018-12-06T01:52:14.886Z,4.63
2018-12-06T01:54:44.467Z,5.03
2018-12-06T01:57:13.567Z,4.50
2018-12-06T01:59:42.587Z,4.17
2018-12-06T02:02:11.813Z,4.43
2018-12-06T02:04:41.059Z,4.40
2018-12-06T02:07:10.166Z,4.80
2018-12-06T02:09:39.245Z,4.50
2018-12-06T02:12:12.943Z,5.10
2018-12-06T02:14:42.355Z,5.33
2018-12-06T02:17:11.199Z,5.07
2018-12-06T02:19:40.005Z,4.90
2018-12-06T02:22:08.721Z,5.87
2018-12-06T02:24:37.352Z,5.20
2018-12-06T02:27:06.365Z,5.43
2018-12-06T02:29:40.533Z,5.30
2018-12-06T02:32:09.510Z,5.90
2018-12-06T02:34:39.491Z,5.73
2018-12-06T02:37:08.941Z,5.67
2018-12-06T02:39:37.865Z,5.77
2018-12-06T02:42:07.043Z,5.43
2018-12-06T02:44:36.337Z,6.43
2018-12-06T02:47:05.466Z,6.00
2018-12-06T02:49:34.727Z,5.80
2018-12-06T02:52:04.494Z,5.60
2018-12-06T02:54:33.564Z,5.70
2018-12-06T02:57:02.555Z,5.93
2018-12-06T02:59:31.881Z,6.23
2018-12-06T03:02:01.042Z,5.83
2018-12-06T03:04:30.055Z,6.80
2018-12-06T03:06:59.042Z,5.90
2018-12-06T03:09:28.077Z,6.23
2018-12-06T03:11:57.089Z,6.90
2018-12-06T03:14:25.968Z,6.50
2018-12-06T03:16:54.949Z,6.57
2018-12-06T03:19:23.559Z,6.77
2018-12-06T03:21:52.118Z,7.20
2018-12-06T03:24:20.857Z,6.27
2018-12-06T03:26:49.630Z,7.03
2018-12-06T03:29:18.758Z,7.37
2018-12-06T03:31:47.921Z,6.63
2018-12-06T03:34:16.783Z,7.37
2018-12-06T03:36:47.708Z,6.60
2018-12-06T03:39:16.979Z,6.93
2018-12-06T03:41:45.696Z,7.37
2018-12-06T03:44:14.218Z,6.27
2018-12-06T03:46:43.177Z,6.40
2018-12-06T03:49:12.174Z,6.87
2018-12-06T03:51:41.163Z,7.10
2018-12-06T03:54:10.148Z,7.07
2018-12-06T03:56:39.064Z,6.93
2018-12-06T03:59:08.110Z,7.50
2018-12-06T04:01:37.142Z,8.10
2018-12-06T04:04:06.133Z,7.77
2018-12-06T04:06:35.042Z,7.67
2018-12-06T04:09:05.779Z,7.77
2018-12-06T04:11:34.841Z,8.43
2018-12-06T04:14:03.996Z,7.27
2018-12-06T04:16:32.855Z,7.77
2018-12-06T04:19:01.383Z,8.53
2018-12-06T04:21:30.049Z,8.37
2018-12-06T04:23:58.562Z,8.30
2018-12-06T04:26:27.231Z,8.57
2018-12-06T04:28:55.915Z,8.47
2018-12-06T04:31:24.406Z,8.93
2018-12-06T04:33:53.181Z,9.13
2018-12-06T04:36:21.922Z,8.70
2018-12-06T04:38:50.959Z,8.90
2018-12-06T04:41:19.888Z,8.83
2018-12-06T04:43:48.916Z,9.03
2018-12-06T04:46:17.963Z,9.23
2018-12-06T04:48:46.948Z,9.47
2018-12-06T04:51:15.752Z,9.57
2018-12-06T04:53:44.724Z,10.57
2018-12-06T04:56:13.792Z,10.17
2018-12-06T04:58:42.824Z,10.47
2018-12-06T05:01:11.796Z,10.10
2018-12-06T05:03:40.813Z,10.67
2018-12-06T05:06:10.016Z,10.37
2018-12-06T05:08:39.126Z,10.37
2018-12-06T05:11:07.734Z,9.87
2018-12-06T05:13:36.815Z,11.00
2018-12-06T05:16:05.913Z,11.00
2018-12-06T05:18:34.983Z,10.73
2018-12-06T05:21:04.047Z,11.03
2018-12-06T05:23:33.182Z,11.50
2018-12-06T05:26:02.270Z,9.70
2018-12-06T05:28:31.222Z,10.93
2018-12-06T05:31:00.291Z,11.23
2018-12-06T05:33:28.859Z,11.57
2018-12-06T05:35:57.827Z,10.67
2018-12-06T05:38:26.723Z,11.07
2018-12-06T05:40:55.813Z,10.80
2018-12-06T05:43:24.686Z,10.80
2018-12-06T05:45:53.375Z,11.30
2018-12-06T05:48:21.938Z,11.43
2018-12-06T05:50:50.826Z,11.67
2018-12-06T05:53:19.843Z,12.67
2018-12-06T05:55:48.397Z,13.37
2018-12-06T05:58:17.398Z,11.93
2018-12-06T06:00:46.257Z,12.70
2018-12-06T06:03:15.399Z,12.23
2018-12-06T06:05:44.224Z,11.77
2018-12-06T06:08:12.820Z,13.00
2018-12-06T06:10:41.473Z,13.80
2018-12-06T06:13:10.441Z,13.83
2018-12-06T06:15:39.892Z,12.97
2018-12-06T06:18:08.451Z,14.07
2018-12-06T06:20:37.224Z,12.47
2018-12-06T06:23:06.262Z,13.17
2018-12-06T06:25:35.323Z,15.03
2018-12-06T06:28:03.795Z,14.27
2018-12-06T06:30:32.880Z,14.57
2018-12-06T06:33:01.530Z,15.87
2018-12-06T06:35:30.524Z,15.33
2018-12-06T06:37:59.549Z,15.60
2018-12-06T06:40:28.604Z,16.17
2018-12-06T06:42:57.650Z,15.23
2018-12-06T06:45:26.639Z,17.77
2018-12-06T06:47:55.637Z,16.70
2018-12-06T06:50:24.630Z,17.00
2018-12-06T06:52:53.623Z,16.37
2018-12-06T06:55:22.547Z,17.20
2018-12-06T06:57:51.622Z,17.23
2018-12-06T07:00:20.650Z,17.83
2018-12-06T07:02:49.303Z,17.13
2018-12-06T07:05:18.155Z,17.13
2018-12-06T07:07:47.236Z,17.63
2018-12-06T07:10:16.197Z,17.57
2018-12-06T07:12:45.295Z,17.77
2018-12-06T07:15:14.304Z,18.33
2018-12-06T07:17:43.431Z,17.07
2018-12-06T07:20:12.413Z,17.87
2018-12-06T07:22:41.500Z,18.20
2018-12-06T07:25:10.495Z,17.93
2018-12-06T07:27:39.057Z,19.13
2018-12-06T07:30:12.307Z,19.73
2018-12-06T07:32:39.332Z,20.63
2018-12-06T07:35:08.190Z,19.90
2018-12-06T07:37:37.206Z,20.40
2018-12-06T07:40:06.536Z,20.30
2018-12-06T07:42:35.489Z,20.07
2018-12-06T07:45:04.896Z,22.93
2018-12-06T07:47:33.987Z,21.10
2018-12-06T07:50:03.081Z,22.30
2018-12-06T07:52:32.170Z,21.33
2018-12-06T07:55:01.231Z,20.73
2018-12-06T07:57:30.276Z,20.83
2018-12-06T07:59:59.357Z,19.33
2018-12-06T08:02:28.768Z,21.30
2018-12-06T08:04:58.007Z,19.07
2018-12-06T08:07:27.208Z,20.97
2018-12-06T08:09:56.207Z,19.53
2018-12-06T08:12:25.650Z,18.63
2018-12-06T08:14:54.698Z,18.87
2018-12-06T08:17:23.788Z,18.93
2018-12-06T08:19:52.755Z,17.47
2018-12-06T08:22:21.923Z,18.97
2018-12-06T08:24:51.053Z,18.67
2018-12-06T08:27:20.119Z,17.00
2018-12-06T08:29:49.183Z,16.93
2018-12-06T08:32:18.322Z,17.63
2018-12-06T08:34:47.329Z,16.53
2018-12-06T08:37:16.390Z,16.03
2018-12-06T08:39:45.458Z,18.07
2018-12-06T08:42:14.453Z,17.30
2018-12-06T08:44:43.530Z,19.40
2018-12-06T08:47:12.551Z,19.57
2018-12-06T08:49:42.713Z,20.07
2018-12-06T08:52:11.713Z,20.93
2018-12-06T08:54:40.792Z,21.77
2018-12-06T08:57:09.844Z,20.93
2018-12-06T08:59:38.888Z,22.70
2018-12-06T09:02:08.005Z,21.30
2018-12-06T09:04:37.668Z,22.60
2018-12-06T09:07:06.962Z,22.57
2018-12-06T09:09:35.934Z,22.20
2018-12-06T09:12:04.954Z,23.37
2018-12-06T09:14:33.909Z,22.93
2018-12-06T09:17:02.951Z,25.17
2018-12-06T09:19:31.914Z,26.03
2018-12-06T09:22:00.629Z,24.67
2018-12-06T09:24:29.691Z,25.80
2018-12-06T09:26:59.168Z,25.57
2018-12-06T09:29:28.395Z,26.90
2018-12-06T09:31:57.571Z,25.97
2018-12-06T09:34:26.568Z,26.27
2018-12-06T09:36:55.554Z,27.47
2018-12-06T09:39:24.553Z,27.13
2018-12-06T09:41:53.619Z,24.80
2018-12-06T09:44:22.711Z,24.87
2018-12-06T09:46:51.748Z,25.50
2018-12-06T09:49:20.683Z,25.67
2018-12-06T09:51:49.756Z,25.47
2018-12-06T09:54:18.835Z,24.93
2018-12-06T09:56:47.584Z,23.53
2018-12-06T09:59:16.186Z,24.97
2018-12-06T10:01:45.261Z,24.27
2018-12-06T10:04:14.471Z,24.83
2018-12-06T10:06:43.469Z,32.17
2018-12-06T10:09:12.586Z,24.50
2018-12-06T10:11:41.680Z,23.93
2018-12-06T10:14:10.564Z,23.20
2018-12-06T10:16:39.671Z,24.73
2018-12-06T10:19:08.522Z,22.67
2018-12-06T10:21:37.206Z,22.47
2018-12-06T10:24:06.133Z,24.30
2018-12-06T10:26:35.089Z,24.17
2018-12-06T10:29:04.157Z,24.70
2018-12-06T10:31:33.208Z,24.40
2018-12-06T10:34:02.278Z,24.97
2018-12-06T10:36:30.832Z,24.60
2018-12-06T10:38:59.694Z,23.93
2018-12-06T10:41:28.750Z,25.33
2018-12-06T10:43:57.310Z,23.90
2018-12-06T10:46:25.885Z,25.33
2018-12-06T10:48:54.539Z,24.73
2018-12-06T10:51:34.405Z,25.07
2018-12-06T10:54:03.156Z,26.97
2018-12-06T10:56:31.841Z,27.00
2018-12-06T10:59:00.721Z,27.20
2018-12-06T11:01:34.620Z,26.37
2018-12-06T11:04:03.250Z,24.33
2018-12-06T11:06:31.801Z,23.60
2018-12-06T11:09:00.383Z,25.00
2018-12-06T11:11:28.849Z,23.20
2018-12-06T11:13:57.329Z,23.53
2018-12-06T11:16:25.849Z,23.10
2018-12-06T11:18:54.847Z,23.07
2018-12-06T11:21:24.024Z,21.10
2018-12-06T11:23:52.904Z,23.23
2018-12-06T11:26:21.633Z,21.27
2018-12-06T11:28:50.207Z,20.00
2018-12-06T11:31:18.925Z,21.07
2018-12-06T11:33:47.657Z,21.10
2018-12-06T11:36:16.516Z,20.93
2018-12-06T11:38:45.089Z,22.03
2018-12-06T11:41:13.994Z,21.40
2018-12-06T11:43:42.548Z,22.37
2018-12-06T11:46:11.219Z,23.30
2018-12-06T11:48:39.783Z,22.83
2018-12-06T11:51:08.304Z,23.17
2018-12-06T11:53:36.845Z,23.27
2018-12-06T11:56:05.329Z,23.87
2018-12-06T11:58:34.020Z,24.40
2018-12-06T12:01:02.626Z,23.57
2018-12-06T12:03:31.203Z,23.53
2018-12-06T12:05:59.793Z,24.60
2018-12-06T12:08:28.448Z,27.93
2018-12-06T12:10:57.073Z,24.93
2018-12-06T12:13:25.691Z,25.03
2018-12-06T12:15:54.164Z,25.87
2018-12-06T12:18:22.710Z,25.37
2018-12-06T12:20:51.204Z,26.63
2018-12-06T12:23:19.802Z,27.03
2018-12-06T12:25:48.281Z,25.63
2018-12-06T12:28:16.840Z,25.97
2018-12-06T12:30:45.397Z,25.60
2018-12-06T12:33:13.915Z,24.53
2018-12-06T12:35:42.382Z,26.63
2018-12-06T12:38:11.010Z,25.67
2018-12-06T12:40:39.462Z,25.33
2018-12-06T12:43:07.984Z,24.67
2018-12-06T12:45:36.516Z,25.47
2018-12-06T12:48:05.049Z,24.60
2018-12-06T12:50:33.526Z,23.13
2018-12-06T12:53:02.158Z,25.03
2018-12-06T12:55:30.683Z,25.03
2018-12-06T12:57:59.353Z,24.30
2018-12-06T13:00:27.847Z,22.60
2018-12-06T13:02:56.549Z,23.93
2018-12-06T13:05:25.008Z,24.13
2018-12-06T13:07:53.507Z,23.90
2018-12-06T13:10:21.964Z,23.77
2018-12-06T13:12:50.463Z,24.17
2018-12-06T13:15:19.057Z,22.60
2018-12-06T13:17:47.640Z,24.77
2018-12-06T13:20:16.070Z,25.40
2018-12-06T13:22:44.565Z,24.30
2018-12-06T13:25:13.021Z,25.17
2018-12-06T13:27:41.501Z,25.17
2018-12-06T13:30:10.166Z,26.50
2018-12-06T13:32:38.628Z,26.53
2018-12-06T13:35:07.415Z,26.03
2018-12-06T13:37:35.925Z,24.73
2018-12-06T13:40:05.209Z,25.37
2018-12-06T13:42:33.830Z,28.17
2018-12-06T13:45:02.308Z,29.13
2018-12-06T13:47:30.782Z,29.73
2018-12-06T13:49:59.318Z,27.63
2018-12-06T13:52:27.982Z,31.60
2018-12-06T13:54:56.485Z,27.73
2018-12-06T13:57:25.033Z,29.13
2018-12-06T13:59:53.542Z,28.07
2018-12-06T14:02:22.176Z,28.43
2018-12-06T14:04:50.639Z,26.33
2018-12-06T14:07:19.113Z,27.73
2018-12-06T14:09:47.617Z,29.03
2018-12-06T14:12:16.043Z,29.20
2018-12-06T14:14:44.514Z,30.07
2018-12-06T14:17:13.052Z,28.07
2018-12-06T14:19:41.552Z,29.03
2018-12-06T14:22:10.016Z,28.63
2018-12-06T14:24:38.570Z,29.53
2018-12-06T14:27:07.016Z,30.00
2018-12-06T14:29:35.491Z,29.23
2018-12-06T14:32:03.998Z,29.27
2018-12-06T14:34:32.514Z,29.47
2018-12-06T14:37:02.255Z,27.60
2018-12-06T14:39:30.940Z,29.47
2018-12-06T14:41:59.465Z,28.80
2018-12-06T14:44:27.969Z,28.77
2018-12-06T14:46:56.484Z,31.20
2018-12-06T14:49:24.984Z,28.73
2018-12-06T14:51:53.475Z,30.80
2018-12-06T14:54:22.014Z,29.47
2018-12-06T14:56:50.505Z,29.77
2018-12-06T14:59:18.987Z,30.77
2018-12-06T15:01:47.452Z,31.63
2018-12-06T15:04:16.059Z,31.07
2018-12-06T15:06:44.562Z,31.00
2018-12-06T15:09:13.123Z,27.50
2018-12-06T15:11:41.569Z,28.00
2018-12-06T15:16:47.625Z,27.40
2018-12-06T15:19:16.294Z,27.93
2018-12-06T15:21:44.788Z,26.20
2018-12-06T15:24:13.297Z,27.60
2018-12-06T15:26:41.770Z,26.53
2018-12-06T15:29:10.265Z,27.43
2018-12-06T15:31:38.714Z,28.27
2018-12-06T15:34:07.227Z,27.13
2018-12-06T15:36:35.661Z,28.43
2018-12-06T15:39:06.376Z,27.70
2018-12-06T15:41:34.858Z,27.17
2018-12-06T15:44:03.326Z,26.27
2018-12-06T15:46:31.882Z,27.50
2018-12-06T15:49:00.572Z,27.13
2018-12-06T15:51:29.087Z,26.67
2018-12-06T15:53:57.677Z,25.93
2018-12-06T15:56:26.186Z,26.63
2018-12-06T15:58:54.674Z,27.57
2018-12-06T16:01:23.128Z,27.73
2018-12-06T16:03:51.635Z,27.70
2018-12-06T16:06:20.109Z,27.47
2018-12-06T16:08:48.576Z,27.43
2018-12-06T16:11:17.067Z,28.83
2018-12-06T16:13:45.505Z,28.13
2018-12-06T16:16:13.997Z,28.83
2018-12-06T16:18:42.417Z,28.20
2018-12-06T16:21:10.896Z,28.00
2018-12-06T16:23:39.370Z,28.77
2018-12-06T16:26:08.005Z,30.07
2018-12-06T16:28:36.574Z,27.77
2018-12-06T16:31:05.048Z,27.20
2018-12-06T16:33:33.748Z,25.40
2018-12-06T16:36:02.297Z,25.37
2018-12-06T16:38:30.742Z,25.27
2018-12-06T16:40:59.234Z,24.33
2018-12-06T16:43:27.702Z,25.10
2018-12-06T16:45:56.177Z,22.87
2018-12-06T16:48:24.643Z,23.43
2018-12-06T16:50:53.125Z,23.30
2018-12-06T16:53:21.618Z,23.93
2018-12-06T16:55:50.074Z,23.97
2018-12-06T16:58:18.632Z,24.43
2018-12-06T17:00:47.240Z,25.47
2018-12-06T17:03:15.926Z,24.13
2018-12-06T17:05:44.348Z,23.87
2018-12-06T17:08:12.847Z,24.07
2018-12-06T17:10:41.287Z,23.93
2018-12-06T17:13:09.765Z,25.00
2018-12-06T17:15:38.389Z,24.50
2018-12-06T17:18:07.078Z,25.70
2018-12-06T17:20:35.527Z,25.27
2018-12-06T17:23:04.012Z,25.40
2018-12-06T17:25:32.622Z,25.83
2018-12-06T17:28:01.151Z,25.50
2018-12-06T17:30:29.828Z,26.77
2018-12-06T17:32:58.340Z,28.00
2018-12-06T17:35:26.900Z,27.40
2018-12-06T17:37:55.585Z,26.23
2018-12-06T17:40:24.095Z,26.63
2018-12-06T17:42:52.626Z,25.17
2018-12-06T17:45:21.171Z,25.63
2018-12-06T17:47:49.639Z,26.47
2018-12-06T17:50:18.211Z,26.07
2018-12-06T17:52:46.729Z,24.47
2018-12-06T17:55:15.321Z,23.87
2018-12-06T17:57:43.884Z,24.70
2018-12-06T18:00:12.658Z,24.30
2018-12-06T18:02:41.159Z,23.60
2018-12-06T18:05:09.782Z,24.17
2018-12-06T18:07:38.251Z,24.63
2018-12-06T18:10:08.223Z,24.90
2018-12-06T18:12:36.671Z,23.30
2018-12-06T18:15:50.961Z,26.37
2018-12-06T18:18:19.579Z,26.80
2018-12-06T18:20:48.094Z,25.13
2018-12-06T18:23:17.157Z,26.47
2018-12-06T18:25:45.637Z,26.83
2018-12-06T18:28:14.163Z,25.33
2018-12-06T18:30:42.657Z,27.20
2018-12-06T18:33:11.849Z,27.83
2018-12-06T18:35:40.437Z,27.37
2018-12-06T18:38:08.981Z,28.53
2018-12-06T18:40:37.475Z,28.30
2018-12-06T18:43:05.929Z,28.97
2018-12-06T18:45:34.491Z,27.10
2018-12-06T18:48:03.017Z,27.27
2018-12-06T18:50:31.680Z,28.23
2018-12-06T18:53:00.141Z,26.97
2018-12-06T18:55:28.825Z,28.80
2018-12-06T18:57:57.603Z,26.67
2018-12-06T19:00:26.132Z,26.87
2018-12-06T19:02:54.802Z,26.07
2018-12-06T19:05:23.342Z,26.87
2018-12-06T19:07:51.844Z,28.70
2018-12-06T19:10:20.309Z,27.63
2018-12-06T19:12:48.920Z,26.60
2018-12-06T19:15:17.418Z,25.80
2018-12-06T19:17:45.981Z,27.43
2018-12-06T19:20:14.457Z,26.07
2018-12-06T19:22:42.954Z,25.30
2018-12-06T19:25:11.663Z,24.23
2018-12-06T19:27:40.309Z,25.53
2018-12-06T19:30:10.288Z,23.23
2018-12-06T19:32:38.814Z,22.93
2018-12-06T19:35:07.593Z,22.77
2018-12-06T19:37:36.074Z,23.43
2018-12-06T19:40:05.138Z,21.97
2018-12-06T19:42:38.696Z,23.20
2018-12-06T19:45:04.734Z,21.93
2018-12-06T19:47:33.190Z,21.43
2018-12-06T19:50:01.753Z,22.87
2018-12-06T19:52:30.228Z,23.30
2018-12-06T19:54:58.750Z,22.93
2018-12-06T19:57:27.934Z,22.00
2018-12-06T19:59:56.379Z,22.93
2018-12-06T20:02:24.974Z,23.73
2018-12-06T20:04:53.503Z,23.60
2018-12-06T20:07:22.048Z,24.70
2018-12-06T20:09:50.538Z,25.47
2018-12-06T20:12:19.148Z,26.03
2018-12-06T20:14:47.655Z,25.20
2018-12-06T20:17:16.140Z,25.43
2018-12-06T20:19:44.640Z,24.43
2018-12-06T20:22:13.219Z,25.07
2018-12-06T20:24:41.757Z,24.70
2018-12-06T20:27:10.248Z,25.60
2018-12-06T20:29:38.779Z,24.30
2018-12-06T20:32:14.432Z,24.03
2018-12-06T20:34:37.816Z,25.53
2018-12-06T20:37:22.821Z,25.93
2018-12-06T20:39:51.366Z,24.70
2018-12-06T20:42:19.891Z,23.80
2018-12-06T20:44:48.419Z,24.90
2018-12-06T20:47:19.697Z,23.70
2018-12-06T20:49:48.199Z,24.03
2018-12-06T20:52:16.824Z,24.03
2018-12-06T20:54:45.286Z,23.37
2018-12-06T20:57:13.806Z,24.03
2018-12-06T20:59:42.394Z,22.77
2018-12-06T21:02:10.955Z,23.77
2018-12-06T21:04:39.601Z,22.23
2018-12-06T21:07:08.420Z,23.43
2018-12-06T21:09:36.881Z,23.90
2018-12-06T21:12:05.411Z,23.10
2018-12-06T21:14:33.984Z,24.53
2018-12-06T21:17:02.500Z,24.70
2018-12-06T21:19:31.047Z,24.00
2018-12-06T21:21:59.549Z,24.83
2018-12-06T21:24:28.046Z,25.13
2018-12-06T21:26:57.254Z,26.93
2018-12-06T21:29:25.722Z,25.10
2018-12-06T21:31:54.388Z,28.07
2018-12-06T21:34:22.901Z,26.33
2018-12-06T21:36:51.388Z,26.60
2018-12-06T21:39:19.927Z,27.70
2018-12-06T21:41:48.463Z,26.50
2018-12-06T21:44:16.976Z,27.00
2018-12-06T21:46:45.442Z,27.03
2018-12-06T21:49:13.966Z,26.20
2018-12-06T21:51:42.459Z,26.87
2018-12-06T21:54:10.948Z,26.83
2018-12-06T21:56:39.444Z,25.80
2018-12-06T21:59:08.305Z,26.13
2018-12-06T22:01:36.792Z,25.37
2018-12-06T22:04:05.291Z,24.73
2018-12-06T22:06:33.758Z,24.17
2018-12-06T22:09:02.231Z,26.67
2018-12-06T22:11:30.725Z,28.97
2018-12-06T22:13:59.240Z,26.87
2018-12-06T22:16:27.760Z,27.27
2018-12-06T22:18:56.521Z,27.23
2018-12-06T22:21:25.034Z,26.83
2018-12-06T22:23:53.538Z,26.30
2018-12-06T22:26:22.028Z,27.30
2018-12-06T22:28:50.584Z,27.33
2018-12-06T22:31:20.320Z,25.53
2018-12-06T22:33:48.968Z,27.07
2018-12-06T22:36:17.503Z,27.63
2018-12-06T22:38:45.998Z,27.53
2018-12-06T22:41:14.501Z,29.03
2018-12-06T22:43:43.086Z,28.67
2018-12-06T22:46:11.669Z,27.83
2018-12-06T22:48:40.140Z,27.87
2018-12-06T22:51:08.673Z,27.90
2018-12-06T22:53:37.367Z,28.43
2018-12-06T22:56:05.856Z,30.43
2018-12-06T22:58:34.310Z,28.57
2018-12-06T23:01:06.929Z,28.73
2018-12-06T23:03:35.395Z,28.77
2018-12-06T23:06:04.035Z,27.50
2018-12-06T23:08:32.526Z,28.63
2018-12-06T23:11:01.071Z,29.77
2018-12-06T23:13:29.766Z,28.20
2018-12-06T23:15:59.153Z,28.33
2018-12-06T23:18:27.662Z,28.87
2018-12-06T23:20:56.129Z,29.33
2018-12-06T23:23:24.642Z,28.83
2018-12-06T23:25:53.407Z,25.93
2018-12-06T23:28:21.876Z,26.10
2018-12-06T23:30:50.504Z,23.83
2018-12-06T23:33:19.034Z,25.43
2018-12-06T23:35:48.369Z,24.77
2018-12-06T23:38:16.791Z,22.87
2018-12-06T23:40:45.279Z,23.30
2018-12-06T23:43:13.786Z,22.80
2018-12-06T23:45:42.524Z,22.90
2018-12-06T23:48:11.076Z,20.33
2018-12-06T23:50:39.652Z,21.00
2018-12-06T23:53:08.267Z,19.77
2018-12-06T23:55:39.933Z,20.37
2018-12-06T23:58:08.510Z,21.37
